Sierra Blanca, Texas
Current Conditions -  °F | °C
As of 5:51 PM on Sunday 21 Dec 2014 (Local Time) from KGDP Reporting Station
Clear Clear  
Wind Chill: 50°   Ceiling: Unl
Heat Index: 50°   Visibility: 10mi
Dew Point: 24°   Wind: 48mph
Humidity: 36%   Direction: 250°WSW
Pressure: 29.85"   Gusts: 58mph
Location:  31.17°N, 105.36°W
Report Text: KGDP 220051Z AUTO 25042G50KT 10SM CLR 10/M04 A2985 RMK AO2 PK WND 25053/2355 SLP083 T01001044
Loading
Personal Weather Stations






























Interactive Weather Map New forecast layout! Learn more

10-Day Weather Forecast

Advertisements
Track Severe Weather on mobile